KBTV

Burlington International Airport

Burlington, Vermont, USA
KBTV 230538Z 2306/2406 00000KT P6SM SKC FM231700 19005KT P6SM FEW250 FM232300 VRB04KT P6SM SKC
Issued Valid From Valid To
Apr-23 @ 05:38 UTC
(4 hours ago)
Apr-23 @ 06:00 UTC
(3 hours ago)
Apr-24 @ 06:00 UTC
(in 21 hours)
Apr-23 @ 06:00 to Apr-23 @ 17:00
KBTV 230538Z 2306/2406 00000KT P6SM SKC
Visibility Clouds
Greater than 6 miles
  • Clear skies
From Apr-23 @ 17:00 to Apr-23 @ 23:00
FM231700 19005KT P6SM FEW250
Wind Visibility Clouds
190° at 5 knots Greater than 6 miles
  • Few at 25,000' AGL
From Apr-23 @ 23:00 to Apr-24 @ 06:00
FM232300 VRB04KT P6SM SKC
Wind Visibility Clouds
Variable at 4 knots Greater than 6 miles
  • Clear skies
KBTV 230538Z 2306/2406 00000KT P6SM SKC FM231700 19005KT P6SM FEW250 FM232300 VRB04KT P6SM SKC
Issued Apr-23 @ 05:38 UTC
(4 hours ago)
Valid From Apr-23 @ 06:00 UTC
(3 hours ago)
Valid To Apr-24 @ 06:00 UTC
(in 21 hours)
Apr-23 @ 06:00 - Apr-23 @ 17:00
Clouds
  • Clear skies
From Apr-23 @ 17:00 - Apr-23 @ 23:00
Wind Visibility
190° at 5 knots Greater than 6 miles
Clouds
  • Few at 25,000' AGL
From Apr-23 @ 23:00 - Apr-24 @ 06:00
Wind Visibility
Variable at 4 knots Greater than 6 miles
Clouds
  • Clear skies